.
WxDataArchive / Data Records for 2015-10-22
2015-10-21 October 2015 2015-10-23

Data Records for Thursday, 22 October 2015

Time	Temp	Chill	HIndex	Humid	Dewpt	 Wind 	HiWind	WindDir	Rain 	Barom
-----	----	-----	------	-----	-----	------	------	-------	-----	-----
00:00	65.6	65.6	65.6	52	47.5	0	2	248	0.00	30.104 
00:05	65.5	65.5	65.5	52	47.4	0	2	248	0.00	30.104 
00:10	65.5	65.5	65.5	52	47.4	0	2	248	0.00	30.104 
00:15	65.3	65.3	65.3	53	47.7	0	1	248	0.00	30.098 
00:20	65.2	65.2	65.2	53	47.6	0	1	248	0.00	30.098 
00:25	65.2	65.2	65.2	53	47.6	0	2	248	0.00	30.098 
00:30	65.0	65.0	65.0	53	47.4	0	1	248	0.00	30.093 
00:35	65.0	65.0	65.0	54	47.9	0	2	248	0.00	30.093 
00:40	64.8	64.8	64.8	54	47.8	0	1	248	0.00	30.093 
00:45	64.7	64.7	64.7	54	47.7	0	1	248	0.00	30.088 
00:50	64.5	64.5	64.5	54	47.5	0	2	248	0.00	30.088 
00:55	64.5	64.5	64.5	55	48.0	0	1	248	0.00	30.088 
01:00	64.5	64.5	64.5	55	48.0	0	1	248	0.00	30.085 
01:05	64.3	64.3	64.3	55	47.8	0	1	248	0.00	30.085 
01:10	64.2	64.2	64.2	55	47.7	0	1	248	0.00	30.085 
01:15	64.2	64.2	64.2	56	48.2	0	1	248	0.00	30.076 
01:20	64.0	64.0	64.0	56	48.0	0	1	248	0.00	30.076 
01:25	64.0	64.0	64.0	56	48.0	0	1	248	0.00	30.076 
01:30	63.9	63.9	63.9	57	48.4	0	3	248	0.00	30.072 
01:35	63.9	63.9	63.9	57	48.4	0	1	248	0.00	30.072 
01:40	63.9	63.9	63.9	57	48.4	0	3	248	0.00	30.072 
01:45	63.9	63.9	63.9	57	48.4	0	1	248	0.00	30.069 
01:50	63.7	63.7	63.7	58	48.6	0	1	248	0.00	30.069 
01:55	63.7	63.7	63.7	58	48.6	0	1	248	0.00	30.069 
02:00	63.5	63.5	63.5	58	48.5	0	1	248	0.00	30.070 
02:05	63.5	63.5	63.5	58	48.5	0	1	248	0.00	30.070 
02:10	63.5	63.5	63.5	58	48.5	0	1	248	0.00	30.070 
02:15	63.5	63.5	63.5	58	48.5	0	2	248	0.00	30.074 
02:20	63.4	63.4	63.4	59	48.8	0	1	248	0.00	30.074 
02:25	63.4	63.4	63.4	59	48.8	0	1	248	0.00	30.074 
02:30	63.2	63.2	63.2	59	48.6	0	1	248	0.00	30.075 
02:35	63.2	63.2	63.2	59	48.6	0	1	248	0.00	30.075 
02:40	63.1	63.1	63.1	60	49.0	0	1	248	0.00	30.075 
02:45	63.1	63.1	63.1	60	49.0	0	1	248	0.00	30.076 
02:50	62.9	62.9	62.9	60	48.8	0	1	248	0.00	30.076 
02:55	62.9	62.9	62.9	61	49.2	0	1	248	0.00	30.076 
03:00	62.7	62.7	62.7	61	49.1	0	1	248	0.00	30.077 
03:05	62.7	62.7	62.7	61	49.1	0	1	248	0.00	30.077 
03:10	62.6	62.6	62.6	61	49.0	0	1	248	0.00	30.077 
03:15	62.6	62.6	62.6	61	49.0	0	1	248	0.00	30.079 
03:20	62.6	62.6	62.6	62	49.4	0	1	248	0.00	30.079 
03:25	62.6	62.6	62.6	62	49.4	0	0	---	0.00	30.079 
03:30	62.4	62.4	62.4	62	49.2	0	1	248	0.00	30.079 
03:35	62.3	62.3	62.3	62	49.1	0	0	---	0.00	30.079 
03:40	62.1	62.1	62.1	62	48.9	0	0	---	0.00	30.079 
03:45	62.0	62.0	62.0	63	49.3	0	1	248	0.00	30.076 
03:50	61.8	61.8	61.8	63	49.1	0	0	---	0.00	30.076 
03:55	61.8	61.8	61.8	63	49.1	0	0	---	0.00	30.076 
04:00	61.6	61.6	61.6	64	49.3	0	0	---	0.00	30.077 
04:05	61.6	61.6	61.6	64	49.3	0	0	---	0.00	30.077 
04:10	61.5	61.5	61.5	64	49.2	0	0	---	0.00	30.077 
04:15	61.5	61.5	61.5	65	49.6	0	0	---	0.00	30.072 
04:20	61.3	61.3	61.3	65	49.4	0	0	---	0.00	30.072 
04:25	61.2	61.2	61.2	65	49.3	0	0	---	0.00	30.072 
04:30	61.2	61.2	61.2	65	49.3	0	1	248	0.00	30.069 
04:35	61.2	61.2	61.2	65	49.3	0	1	248	0.00	30.069 
04:40	61.3	61.3	61.3	65	49.4	0	1	248	0.00	30.069 
04:45	61.3	61.3	61.3	65	49.4	0	1	248	0.00	30.066 
04:50	61.5	61.5	61.5	65	49.6	0	0	---	0.00	30.066 
04:55	61.3	61.3	61.3	65	49.4	0	0	---	0.00	30.066 
05:00	61.3	61.3	61.3	65	49.4	0	1	248	0.00	30.062 
05:05	61.5	61.5	61.5	65	49.6	0	1	248	0.00	30.062 
05:10	61.5	61.5	61.5	65	49.6	0	1	248	0.00	30.062 
05:15	61.3	61.3	61.3	65	49.4	0	1	248	0.00	30.065 
05:20	61.3	61.3	61.3	65	49.4	0	1	248	0.00	30.065 
05:25	61.3	61.3	61.3	65	49.4	0	0	---	0.00	30.065 
05:30	61.2	61.2	61.2	66	49.7	0	1	248	0.00	30.068 
05:35	61.2	61.2	61.2	66	49.7	0	1	248	0.00	30.068 
05:40	61.2	61.2	61.2	66	49.7	0	1	248	0.00	30.068 
05:45	61.2	61.2	61.2	66	49.7	0	0	---	0.00	30.071 
05:50	61.2	61.2	61.2	66	49.7	0	1	248	0.00	30.071 
05:55	61.2	61.2	61.2	66	49.7	0	1	248	0.00	30.071 
06:00	61.2	61.2	61.2	66	49.7	0	1	248	0.00	30.074 
06:05	61.2	61.2	61.2	66	49.7	0	1	248	0.00	30.074 
06:10	61.0	61.0	61.0	67	50.0	0	1	248	0.00	30.074 
06:15	60.9	60.9	60.9	67	49.9	0	1	248	0.00	30.084 
06:20	60.9	60.9	60.9	67	49.9	0	1	248	0.00	30.084 
06:25	60.7	60.7	60.7	68	50.1	0	0	---	0.00	30.084 
06:30	60.5	60.5	60.5	68	49.9	0	0	---	0.00	30.090 
06:35	60.4	60.4	60.4	69	50.2	0	0	---	0.00	30.090 
06:40	60.2	60.2	60.2	69	50.0	0	0	---	0.00	30.090 
06:45	60.1	60.1	60.1	70	50.3	0	1	248	0.00	30.096 
06:50	59.9	59.9	59.9	70	50.1	0	1	248	0.00	30.096 
06:55	59.8	59.8	59.8	71	50.4	0	0	---	0.00	30.096 
07:00	59.8	59.8	59.8	71	50.4	0	1	248	0.00	30.109 
07:05	59.6	59.6	59.6	71	50.2	0	0	---	0.00	30.109 
07:10	59.3	59.3	59.3	72	50.3	0	0	---	0.00	30.109 
07:15	59.2	59.2	59.2	72	50.2	0	0	---	0.00	30.110 
07:20	59.0	59.0	59.0	73	50.4	0	0	---	0.00	30.110 
07:25	58.9	58.9	58.9	73	50.3	0	0	---	0.00	30.110 
07:30	58.9	58.9	58.9	73	50.3	0	0	---	0.00	30.121 
07:35	58.7	58.7	58.7	74	50.4	0	0	---	0.00	30.121 
07:40	58.6	58.6	58.6	74	50.3	0	0	---	0.00	30.121 
07:45	58.6	58.6	58.6	74	50.3	0	0	---	0.00	30.125 
07:50	58.4	58.4	58.4	75	50.5	0	0	---	0.00	30.125 
07:55	58.4	58.4	58.4	75	50.5	0	0	---	0.00	30.125 
08:00	58.6	58.6	58.6	75	50.7	0	0	---	0.00	30.132 
08:05	58.7	58.7	58.7	75	50.8	0	0	---	0.00	30.132 
08:10	58.7	58.7	58.7	75	50.8	0	0	---	0.00	30.132 
08:15	58.7	58.7	58.7	75	50.8	0	0	---	0.00	30.138 
08:20	58.7	58.7	58.7	75	50.8	0	1	248	0.00	30.138 
08:25	58.9	58.9	58.9	75	51.0	0	0	---	0.00	30.138 
08:30	58.9	58.9	58.9	75	51.0	0	0	---	0.00	30.140 
08:35	58.9	58.9	58.9	75	51.0	0	0	---	0.00	30.140 
08:40	59.0	59.0	59.0	75	51.1	0	0	---	0.00	30.140 
08:45	59.2	59.2	59.2	76	51.6	0	1	248	0.00	30.152 
08:50	59.2	59.2	59.2	76	51.6	0	1	248	0.00	30.152 
08:55	59.3	59.3	59.3	76	51.7	0	1	248	0.00	30.152 
09:00	59.5	59.5	59.5	76	51.9	0	2	248	0.00	30.162 
09:05	59.5	59.5	59.5	76	51.9	0	1	248	0.00	30.162 
09:10	59.5	59.5	59.5	77	52.3	0	1	248	0.00	30.162 
09:15	59.5	59.5	59.5	77	52.3	0	3	248	0.00	30.170 
09:20	59.3	59.3	59.3	77	52.1	0	1	248	0.00	30.170 
09:25	59.3	59.3	59.3	77	52.1	0	1	248	0.00	30.170 
09:30	59.2	59.2	59.2	78	52.3	0	1	248	0.00	30.172 
09:35	59.0	59.0	59.0	79	52.5	0	1	248	0.00	30.172 
09:40	58.7	58.7	58.7	80	52.5	0	2	248	0.00	30.172 
09:45	58.6	58.6	58.6	81	52.8	0	1	248	0.00	30.185 
09:50	58.4	58.4	58.4	81	52.6	0	1	248	0.00	30.185 
09:55	58.4	58.4	58.4	81	52.6	0	1	248	0.00	30.185 
10:00	58.3	58.3	58.3	81	52.5	0	0	---	0.00	30.187 
10:05	58.3	58.3	58.3	80	52.2	0	1	248	0.00	30.187 
10:10	58.3	58.3	58.3	80	52.2	0	1	248	0.00	30.187 
10:15	58.3	58.3	58.3	80	52.2	0	1	248	0.00	30.190 
10:20	58.3	58.3	58.3	79	51.8	0	1	248	0.00	30.190 
10:25	58.4	58.4	58.4	79	51.9	0	1	248	0.00	30.190 
10:30	58.4	58.4	58.4	79	51.9	0	1	248	0.00	30.198 
10:35	58.4	58.4	58.4	79	51.9	0	1	248	0.00	30.198 
10:40	58.3	58.3	58.3	77	51.1	0	1	248	0.00	30.198 
10:45	57.8	57.8	57.8	73	49.2	0	3	248	0.00	30.203 
10:50	57.5	57.5	57.5	69	47.4	1	4	248	0.00	30.203 
10:55	57.5	57.5	57.5	70	47.8	0	2	270	0.00	30.203 
11:00	57.5	57.5	57.5	70	47.8	0	1	270	0.00	30.207 
11:05	57.5	57.5	57.5	70	47.8	0	2	270	0.00	30.207 
11:10	57.5	57.5	57.5	70	47.8	0	2	270	0.00	30.207 
11:15	57.5	57.5	57.5	69	47.4	0	2	270	0.00	30.208 
11:20	57.5	57.5	57.5	70	47.8	0	1	270	0.00	30.208 
11:25	57.5	57.5	57.5	71	48.2	0	0	---	0.00	30.208 
11:30	57.5	57.5	57.5	72	48.5	0	1	270	0.00	30.208 
11:35	57.3	57.3	57.3	72	48.3	0	1	270	0.00	30.208 
11:40	57.2	57.2	57.2	73	48.6	0	1	270	0.00	30.208 
11:45	56.9	56.9	56.9	73	48.3	0	1	270	0.00	30.210 
11:50	56.7	56.7	56.7	74	48.5	0	1	270	0.00	30.210 
11:55	56.7	56.7	56.7	75	48.9	0	1	270	0.00	30.210 
12:00	56.7	56.7	56.7	76	49.2	0	0	---	0.00	30.209 
12:05	56.6	56.6	56.6	76	49.1	0	1	270	0.00	30.209 
12:10	56.6	56.6	56.6	76	49.1	0	0	---	0.00	30.209 
12:15	56.5	56.5	56.5	76	49.0	0	1	270	0.00	30.218 
12:20	56.5	56.5	56.5	76	49.0	0	1	270	0.00	30.218 
12:25	56.5	56.5	56.5	76	49.0	0	0	---	0.00	30.218 
12:30	56.5	56.5	56.5	77	49.4	0	1	270	0.00	30.223 
12:35	56.5	56.5	56.5	76	49.0	0	1	270	0.00	30.223 
12:40	56.5	56.5	56.5	76	49.0	0	1	270	0.00	30.223 
12:45	56.6	56.6	56.6	74	48.4	0	1	270	0.00	30.210 
12:50	56.7	56.7	56.7	74	48.5	0	2	270	0.00	30.210 
12:55	56.9	56.9	56.9	73	48.3	0	2	270	0.00	30.210 
13:00	57.2	57.2	57.2	74	49.0	0	1	270	0.00	30.214 
13:05	57.5	57.5	57.5	73	48.9	0	2	270	0.00	30.214 
13:10	57.8	57.8	57.8	73	49.2	0	2	270	0.00	30.214 
13:15	58.3	58.3	58.3	73	49.7	0	3	270	0.00	30.216 
13:20	58.4	58.4	58.4	71	49.0	1	3	270	0.00	30.216 
13:25	58.7	58.7	58.7	70	48.9	1	2	270	0.00	30.216 
13:30	58.7	58.7	58.7	70	48.9	0	3	270	0.00	30.211 
13:35	58.7	58.7	58.7	69	48.6	0	2	270	0.00	30.211 
13:40	58.7	58.7	58.7	70	48.9	0	1	270	0.00	30.211 
13:45	59.0	59.0	59.0	70	49.2	0	1	270	0.00	30.209 
13:50	59.2	59.2	59.2	69	49.0	0	2	270	0.00	30.209 
13:55	59.3	59.3	59.3	69	49.1	0	3	270	0.00	30.209 
14:00	59.5	59.5	59.5	69	49.3	0	1	270	0.00	30.201 
14:05	59.8	59.8	59.8	69	49.6	0	2	270	0.00	30.201 
14:10	59.9	59.9	59.9	67	48.9	0	2	270	0.00	30.201 
14:15	60.1	60.1	60.1	66	48.7	0	1	270	0.00	30.203 
14:20	60.4	60.4	60.4	66	49.0	0	2	270	0.00	30.203 
14:25	60.5	60.5	60.5	65	48.7	0	2	270	0.00	30.203 
14:30	60.5	60.5	60.5	65	48.7	0	1	270	0.00	30.190 
14:35	60.9	60.9	60.9	64	48.6	0	2	270	0.00	30.190 
14:40	61.0	61.0	61.0	63	48.3	1	3	270	0.00	30.190 
14:45	61.0	61.0	61.0	62	47.9	1	3	270	0.00	30.188 
14:50	61.2	61.2	61.2	62	48.1	1	3	270	0.00	30.188 
14:55	61.2	61.2	61.2	61	47.6	1	4	270	0.00	30.188 
15:00	61.0	61.0	61.0	62	47.9	0	2	315	0.00	30.182 
15:05	61.2	61.2	61.2	62	48.1	0	2	315	0.00	30.182 
15:10	61.2	61.2	61.2	62	48.1	0	1	315	0.00	30.182 
15:15	61.0	61.0	61.0	62	47.9	0	2	315	0.00	30.189 
15:20	61.2	61.2	61.2	62	48.1	0	2	315	0.00	30.189 
15:25	61.3	61.3	61.3	62	48.2	0	2	315	0.00	30.189 
15:30	61.5	61.5	61.5	62	48.4	0	2	315	0.00	30.190 
15:35	61.6	61.6	61.6	60	47.6	0	2	315	0.00	30.190 
15:40	61.8	61.8	61.8	60	47.8	0	4	315	0.00	30.190 
15:45	62.0	62.0	62.0	59	47.5	0	3	315	0.00	30.187 
15:50	62.1	62.1	62.1	58	47.1	0	1	315	0.00	30.187 
15:55	62.3	62.3	62.3	58	47.3	0	1	315	0.00	30.187 
16:00	62.6	62.6	62.6	56	46.7	1	3	315	0.00	30.184 
16:05	63.1	63.1	63.1	54	46.2	1	3	315	0.00	30.184 
16:10	63.5	63.5	63.5	52	45.6	0	2	315	0.00	30.184 
16:15	63.7	63.7	63.7	51	45.2	0	1	315	0.00	30.186 
16:20	63.4	63.4	63.4	48	43.4	0	3	315	0.00	30.186 
16:25	63.4	63.4	63.4	49	43.9	0	1	315	0.00	30.186 
16:30	63.5	63.5	63.5	49	44.0	0	2	315	0.00	30.181 
16:35	63.5	63.5	63.5	47	42.9	0	2	315	0.00	30.181 
16:40	63.4	63.4	63.4	49	43.9	0	1	315	0.00	30.181 
16:45	63.2	63.2	63.2	49	43.7	0	1	315	0.00	30.189 
16:50	63.1	63.1	63.1	48	43.1	0	2	315	0.00	30.189 
16:55	63.2	63.2	63.2	49	43.7	0	1	315	0.00	30.189 
17:00	63.2	63.2	63.2	47	42.6	0	1	315	0.00	30.191 
17:05	63.2	63.2	63.2	46	42.1	0	1	315	0.00	30.191 
17:10	63.1	63.1	63.1	47	42.5	0	1	315	0.00	30.191 
17:15	63.2	63.2	63.2	48	43.2	0	1	315	0.00	30.195 
17:20	63.2	63.2	63.2	47	42.6	0	1	315	0.00	30.195 
17:25	63.2	63.2	63.2	47	42.6	0	1	315	0.00	30.195 
17:30	63.2	63.2	63.2	46	42.1	0	1	315	0.00	30.193 
17:35	63.2	63.2	63.2	45	41.5	0	1	315	0.00	30.193 
17:40	63.1	63.1	63.1	45	41.4	0	1	315	0.00	30.193 
17:45	63.1	63.1	63.1	44	40.8	0	1	315	0.00	30.195 
17:50	62.9	62.9	62.9	45	41.2	0	1	315	0.00	30.195 
17:55	62.9	62.9	62.9	46	41.8	0	0	---	0.00	30.195 
18:00	62.9	62.9	62.9	45	41.2	0	1	315	0.00	30.196 
18:05	63.1	63.1	63.1	45	41.4	0	1	315	0.00	30.196 
18:10	62.9	62.9	62.9	46	41.8	0	0	---	0.00	30.196 
18:15	62.7	62.7	62.7	47	42.2	0	1	315	0.00	30.199 
18:20	62.6	62.6	62.6	48	42.6	0	1	315	0.00	30.199 
18:25	62.4	62.4	62.4	48	42.4	0	0	---	0.00	30.199 
18:30	62.3	62.3	62.3	48	42.4	0	0	---	0.00	30.207 
18:35	62.1	62.1	62.1	48	42.2	0	0	---	0.00	30.207 
18:40	61.8	61.8	61.8	48	41.9	0	0	---	0.00	30.207 
18:45	61.6	61.6	61.6	49	42.3	0	1	315	0.00	30.210 
18:50	61.5	61.5	61.5	49	42.2	0	1	315	0.00	30.210 
18:55	61.3	61.3	61.3	50	42.5	0	0	---	0.00	30.210 
19:00	61.0	61.0	61.0	50	42.2	0	0	---	0.00	30.224 
19:05	60.9	60.9	60.9	51	42.6	0	0	---	0.00	30.224 
19:10	60.7	60.7	60.7	52	43.0	0	0	---	0.00	30.224 
19:15	60.4	60.4	60.4	52	42.7	0	0	---	0.00	30.225 
19:20	60.2	60.2	60.2	53	43.0	0	0	---	0.00	30.225 
19:25	60.1	60.1	60.1	54	43.4	0	0	---	0.00	30.225 
19:30	59.8	59.8	59.8	54	43.1	0	0	---	0.00	30.226 
19:35	59.6	59.6	59.6	55	43.4	0	0	---	0.00	30.226 
19:40	59.5	59.5	59.5	56	43.8	0	0	---	0.00	30.226 
19:45	59.3	59.3	59.3	56	43.6	0	0	---	0.00	30.225 
19:50	59.0	59.0	59.0	57	43.8	0	0	---	0.00	30.225 
19:55	58.7	58.7	58.7	57	43.5	0	0	---	0.00	30.225 
20:00	58.4	58.4	58.4	58	43.7	0	0	---	0.00	30.228 
20:05	58.1	58.1	58.1	59	43.8	0	0	---	0.00	30.228 
20:10	57.8	57.8	57.8	60	44.0	0	0	---	0.00	30.228 
20:15	57.5	57.5	57.5	61	44.2	0	0	---	0.00	30.228 
20:20	57.3	57.3	57.3	62	44.4	0	0	---	0.00	30.228 
20:25	57.2	57.2	57.2	62	44.3	0	0	---	0.00	30.228 
20:30	57.0	57.0	57.0	63	44.5	0	0	---	0.00	30.232 
20:35	56.9	56.9	56.9	64	44.8	0	0	---	0.00	30.232 
20:40	56.7	56.7	56.7	64	44.7	0	0	---	0.00	30.232 
20:45	56.6	56.6	56.6	63	44.2	0	0	---	0.00	30.229 
20:50	56.6	56.6	56.6	64	44.6	0	0	---	0.00	30.229 
20:55	56.5	56.5	56.5	65	44.9	0	0	---	0.00	30.229 
21:00	56.3	56.3	56.3	65	44.7	0	0	---	0.00	30.231 
21:05	56.0	56.0	56.0	65	44.4	0	0	---	0.00	30.231 
21:10	55.9	55.9	55.9	66	44.7	0	0	---	0.00	30.231 
21:15	55.9	55.9	55.9	66	44.7	0	0	---	0.00	30.235 
21:20	55.7	55.7	55.7	66	44.5	0	0	---	0.00	30.235 
21:25	55.7	55.7	55.7	66	44.5	0	0	---	0.00	30.235 
21:30	55.7	55.7	55.7	67	44.9	0	0	---	0.00	30.241 
21:35	55.6	55.6	55.6	67	44.8	0	0	---	0.00	30.241 
21:40	55.4	55.4	55.4	66	44.2	0	0	---	0.00	30.241 
21:45	55.3	55.3	55.3	65	43.7	0	0	---	0.00	30.240 
21:50	55.3	55.3	55.3	65	43.7	0	0	---	0.00	30.240 
21:55	55.1	55.1	55.1	65	43.5	0	0	---	0.00	30.240 
22:00	55.1	55.1	55.1	66	43.9	0	0	---	0.00	30.247 
22:05	55.0	55.0	55.0	66	43.9	0	0	---	0.00	30.247 
22:10	54.8	54.8	54.8	67	44.1	0	0	---	0.00	30.247 
22:15	54.7	54.7	54.7	66	43.6	0	0	---	0.00	30.248 
22:20	54.5	54.5	54.5	67	43.8	0	0	---	0.00	30.248 
22:25	54.4	54.4	54.4	67	43.7	0	0	---	0.00	30.248 
22:30	54.1	54.1	54.1	68	43.8	0	0	---	0.00	30.250 
22:35	53.9	53.9	53.9	68	43.6	0	0	---	0.00	30.250 
22:40	53.6	53.6	53.6	68	43.3	0	0	---	0.00	30.250 
22:45	53.5	53.5	53.5	68	43.2	0	0	---	0.00	30.248 
22:50	53.2	53.2	53.2	68	42.9	0	0	---	0.00	30.248 
22:55	52.9	52.9	52.9	68	42.6	0	0	---	0.00	30.248 
23:00	52.8	52.8	52.8	68	42.5	0	0	---	0.00	30.253 
23:05	52.5	52.5	52.5	69	42.6	0	0	---	0.00	30.253 
23:10	52.2	52.2	52.2	69	42.3	0	0	---	0.00	30.253 
23:15	52.0	52.0	52.0	69	42.1	0	0	---	0.00	30.253 
23:20	51.9	51.9	51.9	69	42.1	0	0	---	0.00	30.253 
23:25	51.7	51.7	51.7	69	41.9	0	0	---	0.00	30.253 
23:30	51.6	51.6	51.6	69	41.8	0	0	---	0.00	30.255 
23:35	51.6	51.6	51.6	69	41.8	0	0	---	0.00	30.255 
23:40	51.4	51.4	51.4	69	41.6	0	0	---	0.00	30.255 
23:45	51.3	51.3	51.3	70	41.9	0	0	---	0.00	30.262 
23:50	51.1	51.1	51.1	70	41.7	0	0	---	0.00	30.262 
23:55	51.1	51.1	51.1	70	41.7	0	0	---	0.00	30.262 

CoCoRaHS
IN-AL-39
A2 Web Hosting
Creative Commons License
GoDaddy
search engine by freefind advanced

loaded 2018-11-17 06:52:01 • last modified 2010-11-18 10:43:29
Privacy PolicyDisclaimer
• wx.awcolley.com is powered by PmWiki v.2002016 •
• all content (unless otherwise noted) © 2018 A W Colley